Time;durP1;ratioP1;P1;durP2;ratioP2;P2;SDS_P1;SDS_P2;PMS_P1;PMS_P2;Temp;Humidity;BMP_temperature;BMP_pressure;BME280_temperature;BME280_humidity;BME280_pressure;Samples;Min_cycle;Max_cycle;Signal;HPM_P1;HPM_P2
2023/06/02 00:00:39;;;;;;;16.90;7.10;;;15.60;99.90;;;15.76;59.69;102168.28;5083358;28;20123;-65
2023/06/02 00:03:10;;;;;;;13.00;6.45;;;15.50;99.90;;;15.76;59.39;102154.06;5081316;28;20078;-66
2023/06/02 00:05:39;;;;;;;20.75;6.70;;;15.50;99.90;;;15.83;59.47;102164.69;5077364;28;20102;-65
2023/06/02 00:08:08;;;;;;;16.65;6.70;;;15.50;99.90;;;15.84;59.45;102158.47;5083901;28;20493;-66
2023/06/02 00:10:37;;;;;;;15.48;6.72;;;15.50;99.90;;;15.86;59.29;102161.13;5081902;28;20045;-65
2023/06/02 00:13:07;;;;;;;16.70;6.65;;;15.50;99.90;;;15.79;59.39;102164.72;5083143;28;20072;-65
2023/06/02 00:15:40;;;;;;;18.55;7.18;;;15.50;99.90;;;15.81;59.31;102158.50;5082978;28;20066;-65
2023/06/02 00:18:09;;;;;;;14.98;6.80;;;15.50;99.90;;;15.83;59.14;102153.16;5081685;28;20072;-66
2023/06/02 00:20:38;;;;;;;24.90;6.45;;;15.50;99.90;;;15.83;59.48;102156.69;5084261;28;20413;-65
2023/06/02 00:23:08;;;;;;;19.20;7.05;;;15.50;99.90;;;15.79;59.34;102164.72;5076763;28;20040;-65
2023/06/02 00:25:36;;;;;;;;;;;15.50;99.90;;;15.84;59.16;102162.91;5078522;28;20037;-65
2023/06/02 00:28:05;;;;;;;16.20;6.55;;;15.50;99.90;;;15.90;58.50;102154.88;5083416;28;20468;-65
2023/06/02 00:30:35;;;;;;;18.85;6.90;;;15.60;99.90;;;15.73;58.46;102156.75;5082008;28;20047;-65
2023/06/02 00:33:04;;;;;;;17.90;7.18;;;15.50;99.90;;;15.77;58.18;102158.50;5082506;28;20392;-65
2023/06/02 00:35:33;;;;;;;18.33;7.15;;;15.50;99.90;;;15.65;58.49;102153.22;5081724;28;20052;-65
2023/06/02 00:38:04;;;;;;;20.23;7.35;;;15.30;99.90;;;15.68;57.81;102159.44;5081421;28;20041;-65
2023/06/02 00:40:33;;;;;;;14.63;6.40;;;15.40;99.90;;;15.65;58.47;102153.22;5084393;28;20040;-66
2023/06/02 00:43:02;;;;;;;21.23;7.68;;;15.30;99.90;;;15.58;58.16;102159.50;5075510;28;20389;-65
2023/06/02 00:45:32;;;;;;;18.83;6.38;;;15.30;99.90;;;15.50;58.09;102161.28;5082621;28;20524;-65
2023/06/02 00:48:02;;;;;;;15.73;6.35;;;15.20;99.90;;;15.43;58.20;102160.41;5081498;28;20509;-66
2023/06/02 00:50:32;;;;;;;15.57;6.15;;;15.10;99.90;;;15.44;58.12;102164.88;5081206;28;20052;-65
2023/06/02 00:53:01;;;;;;;17.85;6.43;;;15.10;99.90;;;15.46;58.11;102156.88;5082956;28;20044;-66
2023/06/02 00:55:31;;;;;;;19.40;7.10;;;15.10;99.90;;;15.19;57.70;102136.50;5080305;28;20052;-66
2023/06/02 00:58:03;;;;;;;18.15;6.57;;;15.10;99.90;;;15.27;58.00;102175.53;5083811;28;20048;-65
2023/06/02 01:00:36;;;;;;;17.35;6.35;;;15.00;99.90;;;15.25;57.74;102157.81;5076911;28;20102;-65
2023/06/02 01:03:07;;;;;;;18.45;6.43;;;15.00;99.90;;;15.26;57.81;102160.47;5082783;28;20105;-65
2023/06/02 01:05:37;;;;;;;16.00;6.47;;;15.00;99.90;;;15.24;57.80;102154.25;5080982;28;20087;-65
2023/06/02 01:08:07;;;;;;;18.80;6.35;;;14.90;99.90;;;15.23;58.48;102163.13;5081441;28;20113;-65
2023/06/02 01:10:38;;;;;;;21.73;6.60;;;14.90;99.90;;;15.24;58.51;102162.25;5099156;28;20566;-65
2023/06/02 01:13:07;;;;;;;23.45;6.70;;;14.90;99.90;;;15.22;58.57;102160.47;5076306;28;20102;-65
2023/06/02 01:15:36;;;;;;;17.48;6.72;;;14.90;99.90;;;15.32;58.70;102164.88;5076824;28;20061;-65
2023/06/02 01:18:10;;;;;;;23.55;7.30;;;15.00;99.90;;;15.28;59.06;102156.00;5083539;28;20076;-65
2023/06/02 01:20:48;;;;;;;21.20;7.25;;;15.00;99.90;;;15.35;59.05;102167.53;5097797;28;20072;-65
2023/06/02 01:23:25;;;;;;;16.33;6.88;;;15.00;99.90;;;15.44;58.99;102171.97;5076283;28;20051;-65
2023/06/02 01:25:55;;;;;;;17.45;6.32;;;15.10;99.90;;;15.49;58.65;102164.84;5081508;28;20130;-65
2023/06/02 01:28:24;;;;;;;18.10;6.93;;;15.10;99.90;;;15.45;59.00;102166.63;5081971;28;20048;-65
2023/06/02 01:31:02;;;;;;;16.88;6.90;;;15.10;99.90;;;15.49;58.63;102165.75;5114511;28;20531;-66
2023/06/02 01:33:39;;;;;;;23.20;6.72;;;15.10;99.90;;;15.50;58.92;102179.97;5084097;28;20047;-65
2023/06/02 01:36:08;;;;;;;15.60;6.75;;;15.20;99.90;;;15.48;58.66;102158.66;5079083;28;20401;-66
2023/06/02 01:38:37;;;;;;;16.23;7.22;;;15.10;99.90;;;15.44;58.38;102142.66;5081865;28;20044;-65
2023/06/02 01:41:08;;;;;;;19.40;8.35;;;15.10;99.90;;;15.43;58.29;102147.09;5082678;28;20055;-65
2023/06/02 01:43:37;;;;;;;15.90;7.77;;;15.10;99.90;;;15.43;58.11;102148.91;5082161;28;20048;-65
2023/06/02 01:46:07;;;;;;;17.03;8.10;;;15.10;99.90;;;15.37;58.51;102147.06;5062483;28;20056;-65
2023/06/02 01:48:36;;;;;;;16.95;7.47;;;15.10;99.90;;;15.39;58.63;102158.63;5095572;28;20055;-65
2023/06/02 01:51:04;;;;;;;15.23;7.05;;;15.10;99.90;;;15.33;58.67;102148.88;5085373;28;20040;-65
2023/06/02 01:53:33;;;;;;;12.73;6.13;;;15.00;99.90;;;15.38;58.86;102148.88;5082969;28;20048;-65
2023/06/02 01:56:02;;;;;;;17.75;7.95;;;15.00;99.90;;;15.38;58.82;102155.09;5084671;28;20040;-65
2023/06/02 01:58:32;;;;;;;16.80;6.78;;;15.00;99.90;;;15.27;58.56;102154.22;5085238;28;20052;-65
2023/06/02 02:01:00;;;;;;;15.55;6.90;;;15.00;99.90;;;15.30;58.89;102164.00;5083503;28;20044;-65
2023/06/02 02:03:32;;;;;;;17.08;6.55;;;15.00;99.90;;;15.35;59.07;102156.84;5086186;28;20413;-65
2023/06/02 02:06:02;;;;;;;18.52;7.20;;;15.00;99.90;;;15.31;59.00;102152.47;5083497;28;20510;-65
2023/06/02 02:08:31;;;;;;;14.90;6.57;;;15.00;99.90;;;15.26;58.93;102159.56;5079962;28;20102;-65
2023/06/02 02:11:00;;;;;;;19.83;6.85;;;14.90;99.90;;;15.21;59.53;102158.69;5086663;28;20075;-65
2023/06/02 02:13:29;;;;;;;14.77;6.77;;;14.90;99.90;;;15.16;59.46;102153.38;5084309;28;20041;-65
2023/06/02 02:15:58;;;;;;;15.27;6.60;;;14.90;99.90;;;15.14;59.39;102151.59;5083943;28;20106;-65
2023/06/02 02:18:27;;;;;;;17.42;6.30;;;14.90;99.90;;;15.06;59.58;102148.09;5085272;28;20050;-65
2023/06/02 02:20:55;;;;;;;14.25;6.35;;;14.80;99.90;;;14.99;59.65;102151.63;5084333;28;20516;-65
2023/06/02 02:23:24;;;;;;;16.95;6.68;;;14.70;99.90;;;15.02;60.08;102160.50;5085558;28;20501;-65
2023/06/02 02:25:52;;;;;;;16.63;5.75;;;14.70;99.90;;;15.03;60.18;102158.72;5083596;28;20102;-65
2023/06/02 02:28:22;;;;;;;17.05;6.38;;;14.70;99.90;;;15.08;59.70;102156.94;5085177;28;20089;-65
2023/06/02 02:30:50;;;;;;;11.20;6.10;;;14.80;99.90;;;15.06;60.06;102161.41;5079160;28;20044;-66
2023/06/02 02:33:20;;;;;;;10.57;5.63;;;14.80;99.90;;;14.94;60.04;102150.75;5086241;28;20516;-65
2023/06/02 02:35:49;;;;;;;12.13;5.97;;;14.70;99.90;;;14.97;59.56;102148.97;5066429;28;20570;-66
2023/06/02 02:38:17;;;;;;;16.77;5.97;;;14.70;99.90;;;14.80;59.61;102148.13;5085119;28;20137;-66
2023/06/02 02:40:46;;;;;;;14.07;6.03;;;14.60;99.90;;;14.87;59.71;102147.22;5083195;28;20051;-66
2023/06/02 02:43:15;;;;;;;15.07;6.57;;;14.50;99.90;;;14.87;60.07;102149.88;5084277;28;20036;-65
2023/06/02 02:45:45;;;;;;;14.00;7.25;;;14.60;99.90;;;14.93;59.82;102138.31;5101296;28;20087;-66
2023/06/02 02:48:13;;;;;;;17.65;7.75;;;14.60;99.90;;;14.83;60.06;102140.09;5082904;28;20435;-66
2023/06/02 02:50:44;;;;;;;14.93;7.70;;;14.50;99.90;;;14.88;59.54;102133.03;5084841;28;20048;-66
2023/06/02 02:53:15;;;;;;;21.20;7.95;;;14.50;99.90;;;14.82;59.74;102137.47;5077557;28;20524;-65
2023/06/02 02:55:45;;;;;;;13.80;6.43;;;14.50;99.90;;;14.84;59.93;102139.25;5082780;28;20056;-66
2023/06/02 02:58:19;;;;;;;16.25;6.90;;;14.50;99.90;;;14.88;60.18;102138.34;5082677;28;20457;-65
2023/06/02 03:00:48;;;;;;;14.07;6.68;;;14.60;99.90;;;14.92;60.00;102139.22;5082033;28;20068;-66
2023/06/02 03:03:20;;;;;;;13.93;6.65;;;14.60;99.90;;;14.89;60.16;102137.44;5084399;28;20040;-66
2023/06/02 03:05:54;;;;;;;20.63;7.65;;;14.60;99.90;;;14.91;60.24;102143.66;5077441;28;20087;-65
2023/06/02 03:08:25;;;;;;;14.35;6.55;;;14.60;99.90;;;15.00;59.96;102137.44;5082976;28;20055;-66
2023/06/02 03:10:55;;;;;;;15.90;6.60;;;14.60;99.90;;;14.89;59.43;102148.09;5116541;27;20097;-65
2023/06/02 03:13:24;;;;;;;12.90;6.68;;;14.60;99.90;;;14.86;59.83;102134.78;5083217;28;20047;-65
2023/06/02 03:15:53;;;;;;;17.60;6.57;;;14.60;99.90;;;14.63;60.16;102136.59;5083735;28;20439;-65
2023/06/02 03:18:22;;;;;;;18.42;6.82;;;14.40;99.90;;;14.63;60.93;102135.69;5080628;28;20052;-65
2023/06/02 03:20:54;;;;;;;16.02;5.93;;;14.30;99.90;;;14.61;60.72;102135.72;5093387;28;20052;-65
2023/06/02 03:23:23;;;;;;;16.70;6.10;;;14.30;99.90;;;14.65;60.48;102133.94;5083606;28;20510;-65
2023/06/02 03:25:51;;;;;;;17.10;5.88;;;14.30;99.90;;;14.68;60.46;102125.91;5082979;28;20131;-66
2023/06/02 03:28:20;;;;;;;24.13;6.13;;;14.40;99.90;;;14.69;60.05;102135.69;5083818;28;20489;-65
2023/06/02 03:30:49;;;;;;;19.58;6.15;;;14.40;99.90;;;14.64;59.74;102133.03;5082300;28;20094;-65
2023/06/02 03:33:19;;;;;;;15.18;6.20;;;14.40;99.90;;;14.73;59.91;102133.00;5081541;28;20055;-65
2023/06/02 03:35:48;;;;;;;23.02;6.60;;;14.40;99.90;;;14.76;59.53;102133.03;5100536;28;20048;-65
2023/06/02 03:38:18;;;;;;;14.57;6.03;;;14.50;99.90;;;14.78;59.89;102136.56;5097382;28;20124;-65
2023/06/02 03:40:49;;;;;;;19.52;6.03;;;14.50;99.90;;;14.85;59.52;102138.34;5053012;28;20053;-65
2023/06/02 03:43:18;;;;;;;14.07;5.78;;;14.50;99.90;;;14.84;59.76;102131.25;5099851;28;20040;-65
2023/06/02 03:45:46;;;;;;;15.80;6.63;;;14.60;99.90;;;14.79;59.22;102125.00;5081241;28;20037;-65
2023/06/02 03:48:16;;;;;;;16.20;5.93;;;14.50;99.90;;;14.72;59.02;102125.03;5082070;28;20074;-65
2023/06/02 03:50:45;;;;;;;15.38;5.80;;;14.40;99.90;;;14.74;59.10;102128.56;5099129;28;20049;-65
2023/06/02 03:53:13;;;;;;;14.57;6.00;;;14.40;99.90;;;14.71;59.06;102134.78;5098076;28;20055;-65
2023/06/02 03:55:43;;;;;;;17.58;5.75;;;14.40;99.90;;;14.61;59.21;102141.03;5084246;28;20562;-65
2023/06/02 03:58:14;;;;;;;14.43;6.15;;;14.30;99.90;;;14.61;58.91;102138.38;5079913;28;20536;-65
2023/06/02 04:00:44;;;;;;;16.23;5.55;;;14.30;99.90;;;14.60;59.35;102149.00;5053078;28;20462;-65
2023/06/02 04:03:13;;;;;;;13.80;6.15;;;14.30;99.90;;;14.62;59.41;102144.56;5083982;28;20135;-65
2023/06/02 04:05:42;;;;;;;15.40;5.70;;;14.30;99.90;;;14.60;59.24;102147.25;5097485;28;20098;-65
2023/06/02 04:08:14;;;;;;;23.77;6.35;;;14.30;99.90;;;14.60;58.55;102147.25;5082916;28;20414;-65
2023/06/02 04:10:44;;;;;;;18.60;5.97;;;14.30;99.90;;;14.54;58.86;102143.72;5083632;28;20077;-65
2023/06/02 04:13:13;;;;;;;13.20;5.90;;;14.20;99.90;;;14.53;59.43;102145.47;5096843;28;20130;-65
2023/06/02 04:15:42;;;;;;;13.02;6.32;;;14.30;99.90;;;14.58;59.37;102146.34;5083577;28;20051;-65
2023/06/02 04:18:11;;;;;;;12.02;5.88;;;14.30;99.90;;;14.69;58.71;102141.88;5093094;28;20383;-65
2023/06/02 04:20:39;;;;;;;19.45;7.00;;;14.40;99.90;;;14.56;58.78;102140.13;5082634;28;20476;-65
2023/06/02 04:23:08;;;;;;;14.60;6.18;;;14.30;99.90;;;14.61;58.77;102142.81;5080281;28;20102;-65
2023/06/02 04:25:36;;;;;;;15.73;6.40;;;14.30;99.90;;;14.63;59.18;102154.34;5082046;28;20044;-65
2023/06/02 04:28:07;;;;;;;15.82;6.30;;;14.30;99.90;;;14.67;59.27;102148.13;5098258;28;20057;-65
2023/06/02 04:30:37;;;;;;;15.13;5.82;;;14.30;99.90;;;14.76;59.32;102149.00;5080657;28;20135;-65
2023/06/02 04:33:06;;;;;;;14.90;5.97;;;14.40;99.90;;;14.73;58.67;102149.00;5099324;28;20048;-65
2023/06/02 04:35:36;;;;;;;16.10;6.28;;;14.50;99.90;;;14.77;59.12;102150.78;5076126;28;20045;-66
2023/06/02 04:38:04;;;;;;;16.40;6.60;;;14.50;99.90;;;14.72;59.03;102155.22;5077087;28;20060;-65
2023/06/02 04:40:33;;;;;;;16.02;5.85;;;14.40;99.90;;;14.72;59.29;102149.91;5082599;28;20044;-66
2023/06/02 04:43:01;;;;;;;17.75;6.53;;;14.50;99.90;;;14.57;59.12;102141.94;5097122;28;20052;-66
2023/06/02 04:45:31;;;;;;;16.63;5.78;;;14.40;99.90;;;14.65;59.61;102155.22;5081799;28;20058;-65
2023/06/02 04:48:00;;;;;;;17.08;6.10;;;14.30;99.90;;;14.47;59.67;102150.78;5082421;28;20497;-66
2023/06/02 04:50:29;;;;;;;17.38;5.68;;;14.30;99.90;;;14.62;59.77;102163.22;5097274;28;20059;-66
2023/06/02 04:52:57;;;;;;;16.15;6.43;;;14.30;99.90;;;14.67;59.79;102158.78;5082019;28;20071;-66
2023/06/02 04:55:26;;;;;;;17.15;6.95;;;14.40;99.90;;;14.60;59.36;102157.00;5081228;28;20044;-66
2023/06/02 04:57:55;;;;;;;17.10;6.00;;;14.30;99.90;;;14.62;59.71;102160.53;5099652;28;20068;-66
2023/06/02 05:00:23;;;;;;;21.02;6.63;;;14.30;99.90;;;14.61;59.96;102157.00;5076332;28;20090;-66
2023/06/02 05:02:53;;;;;;;17.02;6.20;;;14.30;99.90;;;14.59;59.50;102157.91;5092340;28;20095;-66
2023/06/02 05:05:21;;;;;;;18.03;6.33;;;14.30;99.90;;;14.48;59.34;102163.22;5083317;28;20082;-66
2023/06/02 05:07:50;;;;;;;22.10;6.85;;;14.20;99.90;;;14.57;59.49;102159.66;5080259;28;20155;-66
2023/06/02 05:10:20;;;;;;;15.90;6.40;;;14.30;99.90;;;14.45;59.35;102157.91;5097938;28;20040;-66
2023/06/02 05:12:49;;;;;;;12.75;5.88;;;14.20;99.90;;;14.40;60.04;102157.88;5098272;28;20056;-66
2023/06/02 05:15:18;;;;;;;16.58;5.72;;;14.20;99.90;;;14.45;59.90;102157.91;5081243;28;20079;-66
2023/06/02 05:17:47;;;;;;;20.67;6.60;;;14.20;99.90;;;13.92;60.38;102058.44;5085082;28;20101;-66
2023/06/02 05:20:20;;;;;;;20.73;6.43;;;14.20;99.90;;;14.51;60.06;102154.34;5079026;28;20041;-66
2023/06/02 05:22:48;;;;;;;19.48;5.85;;;14.20;99.90;;;14.48;59.79;102157.00;5086107;28;20052;-65
2023/06/02 05:25:18;;;;;;;14.85;6.80;;;14.20;99.90;;;14.58;60.04;102161.44;5100720;28;20053;-66
2023/06/02 05:27:46;;;;;;;15.57;6.20;;;14.30;99.90;;;14.57;60.21;102168.56;5084902;28;20090;-66
2023/06/02 05:30:15;;;;;;;17.77;6.20;;;14.30;99.90;;;14.59;60.41;102161.47;5085647;28;20398;-65
2023/06/02 05:32:45;;;;;;;14.43;6.03;;;14.30;99.90;;;14.55;60.05;102162.34;5101049;28;20050;-66
2023/06/02 05:35:14;;;;;;;13.25;6.00;;;14.30;99.90;;;14.59;60.34;102172.09;5102513;28;20474;-65
2023/06/02 05:37:45;;;;;;;20.42;6.63;;;14.30;99.90;;;14.58;60.11;102170.31;5082759;28;20072;-65
2023/06/02 05:40:14;;;;;;;18.05;6.80;;;14.30;99.90;;;14.63;59.65;102168.56;5054492;28;20107;-65
2023/06/02 05:42:43;;;;;;;12.38;5.68;;;14.30;99.90;;;14.64;59.63;102186.28;5085795;28;20086;-65
2023/06/02 05:45:13;;;;;;;22.23;6.95;;;14.40;99.90;;;14.69;59.47;102179.19;5083718;28;20064;-65
2023/06/02 05:47:46;;;;;;;14.77;5.90;;;14.40;99.90;;;14.60;60.01;102179.19;5084129;28;20044;-66
2023/06/02 05:50:15;;;;;;;23.73;6.72;;;14.40;99.90;;;14.57;59.66;102167.66;5102028;28;20122;-66
2023/06/02 05:52:45;;;;;;;16.73;6.20;;;14.30;99.90;;;14.55;59.37;102173.00;5084107;28;20032;-66
2023/06/02 05:55:14;;;;;;;17.77;6.47;;;14.30;99.90;;;14.56;59.81;102164.09;5086082;28;20052;-66
2023/06/02 05:57:43;;;;;;;17.42;6.70;;;14.30;99.90;;;14.58;59.42;102164.09;5095269;28;20053;-66
2023/06/02 06:00:15;;;;;;;19.00;6.30;;;14.30;99.90;;;14.50;59.72;102158.78;5085305;28;20039;-66
2023/06/02 06:02:45;;;;;;;17.30;6.50;;;14.20;99.90;;;14.59;59.83;102165.88;5084897;28;20048;-66
2023/06/02 06:05:20;;;;;;;18.13;6.82;;;14.30;99.90;;;14.71;60.00;102176.53;5082649;28;20497;-65
2023/06/02 06:07:50;;;;;;;18.55;6.30;;;14.40;99.90;;;14.64;59.89;102158.78;5102302;28;20044;-65
2023/06/02 06:10:19;;;;;;;20.83;7.50;;;14.40;99.90;;;14.71;60.00;102172.06;5094836;28;20048;-65
2023/06/02 06:12:48;;;;;;;18.48;6.10;;;14.40;99.90;;;14.80;60.01;102165.88;5078435;28;20397;-66
2023/06/02 06:15:16;;;;;;;17.45;6.40;;;14.50;99.90;;;14.29;59.26;102119.72;5084952;28;20055;-66
2023/06/02 06:17:50;;;;;;;21.38;6.50;;;14.40;99.90;;;14.66;60.00;102170.31;5083369;28;20494;-65
2023/06/02 06:20:18;;;;;;;20.17;6.78;;;14.40;99.90;;;14.67;59.72;102170.34;5083705;28;20051;-65
2023/06/02 06:22:47;;;;;;;15.68;5.80;;;14.40;99.90;;;14.71;60.13;102177.41;5101322;28;20076;-66
2023/06/02 06:25:19;;;;;;;;;;;14.40;99.90;;;14.82;59.73;102183.63;5082517;28;20139;-66
2023/06/02 06:27:49;;;;;;;18.50;6.15;;;14.60;99.90;;;14.83;59.80;102181.84;5078503;28;20439;-66
2023/06/02 06:30:21;;;;;;;15.77;6.28;;;14.50;99.90;;;14.88;60.04;102178.31;5101518;28;20056;-65
2023/06/02 06:32:52;;;;;;;17.73;5.90;;;14.60;99.90;;;14.96;59.81;102187.16;5117366;27;20132;-66
2023/06/02 06:35:20;;;;;;;21.60;6.38;;;14.60;99.90;;;15.06;59.61;102190.72;5084618;28;20044;-66
2023/06/02 06:37:49;;;;;;;21.30;7.28;;;14.70;99.90;;;15.06;59.45;102191.59;5100822;28;20047;-66
2023/06/02 06:40:19;;;;;;;18.35;6.97;;;14.70;99.90;;;15.14;59.07;102178.25;5082316;28;20052;-66
2023/06/02 06:42:48;;;;;;;;;;;14.80;99.90;;;15.11;58.67;102179.16;5102321;28;20407;-65
2023/06/02 06:45:27;;;;;;;19.90;7.40;;;14.90;99.90;;;15.24;58.95;102186.22;5080197;28;19952;-66
2023/06/02 06:47:56;;;;;;;20.20;5.95;;;14.90;99.90;;;15.24;58.48;102175.56;5083269;28;20048;-66
2023/06/02 06:50:25;;;;;;;20.08;6.65;;;15.00;99.90;;;15.27;58.56;102185.34;5084983;28;20051;-66
2023/06/02 06:52:54;;;;;;;15.60;6.03;;;15.00;99.90;;;15.37;58.91;102185.28;5083583;28;20233;-66
2023/06/02 06:55:23;;;;;;;16.90;6.03;;;15.10;99.90;;;15.39;58.46;102185.28;5085222;28;20413;-66
2023/06/02 06:57:52;;;;;;;20.95;6.47;;;15.10;99.90;;;15.39;58.43;102185.28;5082194;28;20109;-66
2023/06/02 07:00:20;;;;;;;22.33;6.53;;;15.10;99.90;;;15.31;58.74;102177.31;5077867;28;20036;-66
2023/06/02 07:02:49;;;;;;;22.83;7.97;;;15.00;99.90;;;15.33;59.26;102180.88;5078634;28;20076;-66
2023/06/02 07:05:18;;;;;;;22.02;6.30;;;15.00;99.90;;;15.46;58.67;102183.53;5084884;28;20140;-66
2023/06/02 07:07:46;;;;;;;16.88;6.28;;;15.10;99.90;;;15.54;58.64;102184.41;5083032;28;20051;-66
2023/06/02 07:10:15;;;;;;;15.88;6.85;;;15.20;99.90;;;15.63;58.95;102181.69;5079406;28;20042;-66
2023/06/02 07:12:45;;;;;;;16.48;6.97;;;15.30;99.90;;;15.51;58.65;102160.38;5083720;28;20044;-66
2023/06/02 07:15:13;;;;;;;20.13;6.18;;;15.30;99.90;;;15.62;58.20;102178.13;5083287;28;20570;-65
2023/06/02 07:17:42;;;;;;;17.55;6.57;;;15.30;99.90;;;15.69;58.30;102184.34;5100422;28;20082;-65
2023/06/02 07:20:13;;;;;;;22.40;6.67;;;15.30;99.90;;;15.70;57.68;102175.44;5082207;28;20505;-65
2023/06/02 07:22:41;;;;;;;18.95;6.47;;;15.40;99.90;;;15.58;57.77;102186.16;5077909;28;20285;-65
2023/06/02 07:25:11;;;;;;;16.35;6.82;;;15.30;99.90;;;15.70;58.19;102186.13;5085139;28;20044;-65
2023/06/02 07:27:39;;;;;;;18.50;5.75;;;15.40;99.90;;;15.66;57.98;102179.03;5082570;28;20087;-66
2023/06/02 07:30:10;;;;;;;16.95;6.35;;;15.40;99.90;;;15.55;58.17;102172.81;5084150;28;20044;-67
2023/06/02 07:32:38;;;;;;;18.00;6.07;;;15.30;99.90;;;15.36;58.14;102190.66;5083766;28;20040;-67
2023/06/02 07:35:08;;;;;;;23.17;6.90;;;15.10;99.90;;;15.22;58.12;102184.44;5082736;28;20044;-67
2023/06/02 07:37:36;;;;;;;24.95;7.00;;;15.00;99.90;;;15.34;58.77;102184.44;5084399;28;20089;-66
2023/06/02 07:40:07;;;;;;;16.13;6.95;;;15.00;99.90;;;15.38;59.38;102179.09;5081488;28;20102;-66
2023/06/02 07:42:35;;;;;;;20.65;7.47;;;15.10;99.90;;;15.46;58.36;102176.44;5077452;28;20107;-66
2023/06/02 07:45:04;;;;;;;23.98;6.85;;;15.10;99.90;;;15.50;58.80;102188.88;5077925;28;20053;-66
2023/06/02 07:47:33;;;;;;;17.63;6.45;;;15.20;99.90;;;15.34;57.92;102184.44;5084264;28;20052;-65
2023/06/02 07:50:02;;;;;;;17.03;6.67;;;15.10;99.90;;;15.51;58.55;102184.41;5082426;28;20063;-66
2023/06/02 07:52:31;;;;;;;19.20;7.20;;;15.20;99.90;;;15.68;58.39;102185.25;5083239;28;20109;-66
2023/06/02 07:54:59;;;;;;;17.58;6.68;;;15.30;99.90;;;15.72;58.16;102189.63;5081984;28;20524;-66
2023/06/02 07:57:28;;;;;;;22.10;6.63;;;15.40;99.90;;;15.81;57.42;102181.63;5082431;28;20040;-66
2023/06/02 07:59:57;;;;;;;19.63;6.60;;;15.50;99.90;;;15.92;57.90;102185.09;5066442;28;20492;-66
2023/06/02 08:02:25;;;;;;;18.08;6.68;;;15.50;99.90;;;15.99;57.36;102186.84;5081510;28;20079;-66
2023/06/02 08:04:55;;;;;;;16.88;6.45;;;15.70;99.90;;;15.57;57.91;102091.03;5084882;28;20059;-65
2023/06/02 08:07:23;;;;;;;16.13;6.40;;;15.70;99.90;;;16.08;57.75;102178.78;5081321;28;20044;-66
2023/06/02 08:09:52;;;;;;;16.70;5.88;;;15.80;99.90;;;16.15;58.01;102185.88;5084158;28;20282;-66
2023/06/02 08:12:21;;;;;;;17.67;6.75;;;15.80;99.90;;;16.30;57.88;102190.22;5081718;28;20072;-66
2023/06/02 08:14:49;;;;;;;15.25;6.47;;;15.90;99.90;;;16.23;57.35;102184.03;5083166;28;20393;-66
2023/06/02 08:17:18;;;;;;;22.50;6.70;;;15.90;99.90;;;16.27;56.82;102183.13;5082772;28;20048;-66
2023/06/02 08:19:46;;;;;;;15.57;6.13;;;16.00;99.90;;;16.37;57.15;102183.94;5081283;28;20044;-66
2023/06/02 08:22:16;;;;;;;20.60;6.13;;;16.10;99.90;;;16.41;56.86;102186.59;5083276;28;20044;-65
2023/06/02 08:24:44;;;;;;;26.45;11.02;;;16.10;99.90;;;16.39;56.17;102180.38;5081537;28;20040;-66
2023/06/02 08:27:14;;;;;;;20.20;6.45;;;16.20;99.90;;;16.45;56.45;102175.00;5084391;28;20389;-66
2023/06/02 08:29:44;;;;;;;19.67;6.60;;;16.10;99.90;;;16.35;55.94;102154.59;5077036;28;20493;-66
2023/06/02 08:32:12;;;;;;;22.63;7.05;;;16.20;99.90;;;16.52;55.39;102171.41;5084191;28;20036;-66
2023/06/02 08:34:41;;;;;;;17.30;6.20;;;16.30;99.90;;;16.56;55.92;102174.94;5081485;28;20044;-66
2023/06/02 08:37:15;;;;;;;19.25;6.53;;;16.30;99.90;;;16.60;55.46;102180.25;5082943;28;20074;-66
2023/06/02 08:39:45;;;;;;;17.88;6.45;;;16.30;99.90;;;16.73;56.07;102175.66;5083023;28;20048;-66
2023/06/02 08:42:15;;;;;;;20.10;6.30;;;16.40;99.90;;;16.85;56.81;102164.88;5081486;28;20433;-66
2023/06/02 08:44:45;;;;;;;21.13;6.45;;;16.60;99.90;;;16.98;56.65;102172.75;5084460;28;20400;-66
2023/06/02 08:47:21;;;;;;;19.48;6.60;;;16.70;99.90;;;15.69;58.28;102160.31;5093690;28;20102;-66
2023/06/02 08:49:50;;;;;;;27.42;7.65;;;15.80;99.90;;;16.32;57.32;102167.94;5081284;28;20465;-66
2023/06/02 08:52:22;;;;;;;19.20;6.53;;;16.00;99.90;;;16.73;57.08;102165.88;5085149;28;20040;-66
2023/06/02 08:54:52;;;;;;;20.52;6.43;;;16.30;99.90;;;16.90;56.05;102174.63;5085374;28;20032;-66
2023/06/02 08:57:22;;;;;;;17.65;6.35;;;16.50;99.90;;;17.01;56.16;102170.03;5088373;28;20048;-65
2023/06/02 08:59:52;;;;;;;19.20;6.65;;;16.60;99.90;;;17.07;55.98;102167.31;5088049;28;20051;-66
2023/06/02 09:02:20;;;;;;;18.02;6.20;;;16.70;99.90;;;16.96;55.21;102155.84;5085276;28;20083;-66
2023/06/02 09:04:48;;;;;;;18.77;6.07;;;16.80;99.90;;;16.92;56.14;102167.47;5086722;28;20101;-65
2023/06/02 09:07:20;;;;;;;17.92;6.43;;;16.60;99.90;;;16.93;56.34;102163.91;5085816;28;20041;-66
2023/06/02 09:09:53;;;;;;;17.05;6.60;;;16.60;99.90;;;16.85;56.80;102155.06;5085805;28;20044;-66
2023/06/02 09:12:24;;;;;;;12.07;5.72;;;16.60;99.90;;;16.85;57.08;102171.09;5088073;28;20044;-66
2023/06/02 09:15:09;;;;;;;21.00;6.10;;;16.50;99.90;;;17.05;56.65;102176.28;5080510;28;20504;-66
2023/06/02 09:17:38;;;;;;;20.67;7.20;;;16.70;99.90;;;17.19;56.59;102165.44;5085374;28;20076;-66
2023/06/02 09:20:11;;;;;;;17.92;6.95;;;16.80;99.90;;;17.10;56.56;102124.50;5087266;28;20040;-66
2023/06/02 09:22:56;;;;;;;17.10;5.70;;;16.90;99.90;;;17.35;55.85;102167.00;5080657;28;20040;-66
2023/06/02 09:25:28;;;;;;;15.75;6.45;;;17.00;99.90;;;17.19;57.04;102177.00;5100784;28;20051;-66
2023/06/02 09:27:59;;;;;;;19.77;6.90;;;16.90;99.90;;;17.34;56.89;102170.59;5087751;28;20578;-66
2023/06/02 09:30:29;;;;;;;17.27;6.13;;;17.00;99.90;;;17.27;57.01;102175.13;5080948;28;20060;-66
2023/06/02 09:32:59;;;;;;;15.23;6.20;;;17.00;99.90;;;17.29;57.35;102167.06;5086778;28;20556;-66
2023/06/02 09:35:40;;;;;;;19.00;6.70;;;17.00;99.90;;;17.17;57.46;102174.34;5085546;28;20076;-66
2023/06/02 09:38:10;;;;;;;;;;;16.90;99.90;;;17.30;58.03;102168.84;5084304;28;20044;-66
2023/06/02 09:40:41;;;;;;;19.67;6.30;;;17.00;99.90;;;17.38;57.69;102173.19;5080687;28;19973;-66
2023/06/02 09:43:12;;;;;;;21.48;6.90;;;17.10;99.90;;;17.36;57.73;102176.81;5086443;28;20553;-66
2023/06/02 09:46:03;;;;;;;14.68;6.40;;;17.00;99.90;;;17.17;57.90;102167.22;5085428;28;20451;-66
2023/06/02 09:48:34;;;;;;;16.70;6.15;;;16.90;99.90;;;17.14;58.44;102174.38;5080998;28;20506;-66
2023/06/02 09:51:22;;;;;;;23.38;7.85;;;16.80;99.90;;;17.12;58.98;102162.81;5085527;28;20048;-66
2023/06/02 09:53:51;;;;;;;23.88;7.03;;;16.90;99.90;;;17.32;58.81;102175.09;5081566;28;20047;-66
2023/06/02 09:56:22;;;;;;;22.02;7.47;;;17.00;99.90;;;17.10;58.91;102169.97;5085763;28;20060;-67
2023/06/02 09:58:50;;;;;;;19.50;7.45;;;16.90;99.90;;;17.02;59.12;102169.16;5085598;28;20049;-66
2023/06/02 10:01:20;;;;;;;19.88;7.38;;;16.80;99.90;;;17.06;59.99;102170.91;5085082;28;20134;-66
2023/06/02 10:03:48;;;;;;;21.65;7.63;;;16.70;99.90;;;17.16;60.17;102169.00;5085853;28;20058;-66
2023/06/02 10:06:31;;;;;;;19.77;6.78;;;16.80;99.90;;;17.25;59.91;102170.72;5083330;28;20075;-66
2023/06/02 10:09:14;;;;;;;21.80;6.95;;;16.90;99.90;;;17.25;60.14;102166.22;5083079;28;20551;-66
2023/06/02 10:12:00;;;;;;;22.67;7.38;;;16.90;99.90;;;17.32;60.22;102167.94;5079676;28;20472;-66
2023/06/02 10:14:52;;;;;;;29.65;7.30;;;17.00;99.90;;;17.21;59.92;102161.81;5084054;28;20040;-66
2023/06/02 10:17:36;;;;;;;20.58;7.03;;;17.00;99.90;;;17.07;60.34;102161.97;5084541;28;20412;-66
2023/06/02 10:20:25;;;;;;;23.77;8.15;;;16.80;99.90;;;17.15;60.90;102162.78;5081457;28;20049;-66